createdAt,value
2022-08-30T00:01:22.019Z,95309.19
2022-08-30T00:03:48.880Z,95310.53
2022-08-30T00:06:19.757Z,95315.53
2022-08-30T00:08:47.542Z,95305.59
2022-08-30T00:11:20.358Z,95318.88
2022-08-30T00:13:48.820Z,95318.94
2022-08-30T00:16:15.909Z,95312.41
2022-08-30T00:18:44.641Z,95310.00
2022-08-30T00:21:12.961Z,95312.50
2022-08-30T00:23:40.700Z,95310.63
2022-08-30T00:26:08.194Z,95309.91
2022-08-30T00:28:35.875Z,95310.13
2022-08-30T00:31:02.769Z,95309.59
2022-08-30T00:33:30.155Z,95311.50
2022-08-30T00:35:57.481Z,95317.09
2022-08-30T00:38:24.194Z,95311.03
2022-08-30T00:40:52.607Z,95308.28
2022-08-30T00:43:31.144Z,95313.03
2022-08-30T00:45:58.283Z,95315.63
2022-08-30T00:48:25.822Z,95313.59
2022-08-30T00:51:01.733Z,95309.56
2022-08-30T00:53:35.903Z,95315.34
2022-08-30T00:56:04.362Z,95317.47
2022-08-30T00:58:35.842Z,95312.97
2022-08-30T01:01:04.728Z,95311.75
2022-08-30T01:03:34.338Z,95313.63
2022-08-30T01:06:02.794Z,95308.41
2022-08-30T01:08:29.448Z,95307.31
2022-08-30T01:10:57.808Z,95300.59
2022-08-30T01:13:27.006Z,95299.00
2022-08-30T01:15:55.857Z,95295.41
2022-08-30T01:18:23.783Z,95294.88
2022-08-30T01:21:07.743Z,95300.06
2022-08-30T01:23:40.258Z,95294.97
2022-08-30T01:26:08.125Z,95301.00
2022-08-30T01:28:35.398Z,95304.28
2022-08-30T01:31:02.585Z,95303.59
2022-08-30T01:33:29.419Z,95310.06
2022-08-30T01:35:57.786Z,95309.06
2022-08-30T01:38:29.441Z,95306.34
2022-08-30T01:41:07.432Z,95304.53
2022-08-30T01:43:34.075Z,95302.28
2022-08-30T01:46:00.977Z,95303.69
2022-08-30T01:48:30.877Z,95301.41
2022-08-30T01:50:58.386Z,95303.31
2022-08-30T01:53:25.087Z,95304.00
2022-08-30T01:55:51.738Z,95305.34
2022-08-30T01:58:18.402Z,95296.22
2022-08-30T02:00:45.169Z,95302.09
2022-08-30T02:03:11.818Z,95302.44
2022-08-30T02:05:38.403Z,95295.78
2022-08-30T02:08:05.131Z,95301.13
2022-08-30T02:10:32.039Z,95303.13
2022-08-30T02:12:58.654Z,95308.16
2022-08-30T02:15:25.584Z,95316.88
2022-08-30T02:17:52.243Z,95308.56
2022-08-30T02:20:18.877Z,95318.75
2022-08-30T02:22:49.195Z,95306.06
2022-08-30T02:25:20.919Z,95304.75
2022-08-30T02:27:48.532Z,95313.38
2022-08-30T02:30:15.294Z,95318.75
2022-08-30T02:32:41.952Z,95314.56
2022-08-30T02:35:09.045Z,95308.00
2022-08-30T02:37:35.782Z,95315.78
2022-08-30T02:40:03.346Z,95311.25
2022-08-30T02:42:29.984Z,95311.63
2022-08-30T02:44:56.738Z,95300.56
2022-08-30T02:47:23.365Z,95295.16
2022-08-30T02:49:50.013Z,95302.31
2022-08-30T02:52:16.646Z,95303.19
2022-08-30T02:54:43.282Z,95291.72
2022-08-30T02:57:20.273Z,95303.78
2022-08-30T02:59:47.677Z,95304.66
2022-08-30T03:02:15.560Z,95306.41
2022-08-30T03:04:42.639Z,95303.78
2022-08-30T03:07:09.325Z,95305.56
2022-08-30T03:09:36.539Z,95302.75
2022-08-30T03:12:03.731Z,95310.28
2022-08-30T03:14:30.431Z,95308.38
2022-08-30T03:16:57.213Z,95299.88
2022-08-30T03:19:23.904Z,95303.06
2022-08-30T03:21:50.566Z,95311.03
2022-08-30T03:24:17.728Z,95310.13
2022-08-30T03:26:46.501Z,95305.59
2022-08-30T03:29:13.526Z,95302.28
2022-08-30T03:31:52.652Z,95304.38
2022-08-30T03:34:20.121Z,95298.13
2022-08-30T03:36:46.821Z,95300.88
2022-08-30T03:39:14.050Z,95292.44
2022-08-30T03:41:40.851Z,95294.88
2022-08-30T03:44:07.956Z,95288.97
2022-08-30T03:46:37.470Z,95282.53
2022-08-30T03:49:05.490Z,95289.97
2022-08-30T03:51:32.749Z,95287.63
2022-08-30T03:54:00.731Z,95287.94
2022-08-30T03:56:27.424Z,95283.94
2022-08-30T03:58:54.324Z,95284.81
2022-08-30T04:01:21.069Z,95283.44
2022-08-30T04:03:48.028Z,95286.53
2022-08-30T04:06:14.669Z,95280.78
2022-08-30T04:08:42.040Z,95278.00
2022-08-30T04:11:09.213Z,95280.03
2022-08-30T04:13:35.883Z,95286.06
2022-08-30T04:16:02.742Z,95284.09
2022-08-30T04:18:29.401Z,95287.19
2022-08-30T04:20:56.150Z,95284.06
2022-08-30T04:23:22.830Z,95294.13
2022-08-30T04:25:49.480Z,95286.84
2022-08-30T04:28:16.198Z,95288.72
2022-08-30T04:30:44.739Z,95290.34
2022-08-30T04:33:13.627Z,95294.16
2022-08-30T04:35:42.097Z,95290.97
2022-08-30T04:38:09.565Z,95289.81
2022-08-30T04:40:42.529Z,95284.56
2022-08-30T04:43:09.995Z,95281.06
2022-08-30T04:45:38.874Z,95292.09
2022-08-30T04:48:06.561Z,95287.53
2022-08-30T04:50:33.289Z,95282.91
2022-08-30T04:53:00.013Z,95280.78
2022-08-30T04:55:26.666Z,95281.19
2022-08-30T04:57:53.407Z,95276.41
2022-08-30T05:00:20.675Z,95280.78
2022-08-30T05:02:47.915Z,95289.41
2022-08-30T05:05:14.830Z,95278.16
2022-08-30T05:07:41.466Z,95277.91
2022-08-30T05:10:11.367Z,95278.31
2022-08-30T05:12:38.934Z,95277.00
2022-08-30T05:15:06.014Z,95280.03
2022-08-30T05:17:32.904Z,95285.53
2022-08-30T05:20:01.873Z,95291.97
2022-08-30T05:22:28.601Z,95293.75
2022-08-30T05:24:55.253Z,95292.28
2022-08-30T05:27:21.985Z,95298.09
2022-08-30T05:29:48.817Z,95298.31
2022-08-30T05:32:15.632Z,95304.47
2022-08-30T05:34:42.224Z,95295.84
2022-08-30T05:37:08.870Z,95293.34
2022-08-30T05:39:45.089Z,95289.50
2022-08-30T05:42:18.800Z,95297.44
2022-08-30T05:44:45.450Z,95292.16
2022-08-30T05:47:12.085Z,95290.78
2022-08-30T05:49:38.750Z,95291.78
2022-08-30T05:52:05.402Z,95299.03
2022-08-30T05:54:32.053Z,95298.56
2022-08-30T05:56:58.695Z,95291.72
2022-08-30T05:59:25.540Z,95291.13
2022-08-30T06:01:58.212Z,95294.91
2022-08-30T06:04:26.085Z,95303.69
2022-08-30T06:06:52.909Z,95312.75
2022-08-30T06:09:19.709Z,95306.88
2022-08-30T06:11:47.326Z,95314.25
2022-08-30T06:14:14.830Z,95311.88
2022-08-30T06:16:42.898Z,95305.06
2022-08-30T06:19:09.751Z,95303.03
2022-08-30T06:21:37.592Z,95297.41
2022-08-30T06:24:07.747Z,95301.84
2022-08-30T06:26:39.244Z,95299.78
2022-08-30T06:29:06.033Z,95301.41
2022-08-30T06:31:33.602Z,95305.16
2022-08-30T06:34:00.304Z,95301.91
2022-08-30T06:36:27.164Z,95306.22
2022-08-30T06:38:56.488Z,95293.13
2022-08-30T06:41:26.797Z,95299.59
2022-08-30T06:43:54.785Z,95302.59
2022-08-30T06:46:28.231Z,95292.78
2022-08-30T06:48:56.671Z,95297.59
2022-08-30T06:51:33.391Z,95284.88
2022-08-30T06:54:03.253Z,95287.72
2022-08-30T06:56:31.143Z,95293.16
2022-08-30T06:58:58.377Z,95294.84
2022-08-30T07:01:28.160Z,95291.06
2022-08-30T07:03:54.871Z,95297.22
2022-08-30T07:06:23.213Z,95292.97
2022-08-30T07:08:50.333Z,95298.38
2022-08-30T07:11:37.970Z,95288.84
2022-08-30T07:14:06.312Z,95290.91
2022-08-30T07:16:34.160Z,95279.63
2022-08-30T07:19:01.342Z,95277.09
2022-08-30T07:21:41.249Z,95276.47
2022-08-30T07:24:08.843Z,95275.94
2022-08-30T07:26:43.313Z,95274.81
2022-08-30T07:29:10.286Z,95273.44
2022-08-30T07:31:37.522Z,95269.59
2022-08-30T07:34:05.040Z,95274.78
2022-08-30T07:36:32.023Z,95271.94
2022-08-30T07:38:59.132Z,95285.63
2022-08-30T07:41:33.389Z,95292.78
2022-08-30T07:44:01.294Z,95299.31
2022-08-30T07:46:28.111Z,95293.50
2022-08-30T07:48:54.836Z,95294.22
2022-08-30T07:51:24.470Z,95298.69
2022-08-30T07:53:53.496Z,95299.56
2022-08-30T07:56:20.850Z,95301.25
2022-08-30T07:58:48.037Z,95301.19
2022-08-30T08:01:15.924Z,95307.53
2022-08-30T08:03:43.590Z,95306.63
2022-08-30T08:06:12.826Z,95309.28
2022-08-30T08:08:40.860Z,95306.59
2022-08-30T08:11:16.536Z,95308.16
2022-08-30T08:13:53.090Z,95313.44
2022-08-30T08:16:28.994Z,95325.09
2022-08-30T08:18:58.849Z,95323.31
2022-08-30T08:21:26.980Z,95316.75
2022-08-30T08:23:53.907Z,95326.84
2022-08-30T08:26:21.504Z,95320.69
2022-08-30T08:28:48.205Z,95321.09
2022-08-30T08:31:33.769Z,95325.56
2022-08-30T08:34:02.575Z,95322.97
2022-08-30T08:36:30.394Z,95316.97
2022-08-30T08:38:57.171Z,95316.25
2022-08-30T08:41:51.562Z,95318.97
2022-08-30T08:44:23.872Z,95319.03
2022-08-30T08:47:13.726Z,95305.78
2022-08-30T08:49:45.305Z,95305.56
2022-08-30T08:52:23.114Z,95316.63
2022-08-30T08:55:01.990Z,95310.56
2022-08-30T08:57:35.238Z,95308.03
2022-08-30T09:00:13.662Z,95309.53
2022-08-30T09:02:43.278Z,95316.47
2022-08-30T09:05:17.532Z,95315.81
2022-08-30T09:07:51.074Z,95316.47
2022-08-30T09:10:29.981Z,95314.50
2022-08-30T09:13:05.138Z,95310.22
2022-08-30T09:15:34.894Z,95314.56
2022-08-30T09:18:05.387Z,95314.09
2022-08-30T09:20:44.301Z,95315.53
2022-08-30T09:23:13.614Z,95319.03
2022-08-30T09:25:56.328Z,95316.00
2022-08-30T09:28:34.451Z,95321.25
2022-08-30T09:31:03.192Z,95323.13
2022-08-30T09:33:30.521Z,95325.28
2022-08-30T09:36:12.953Z,95314.41
2022-08-30T09:38:40.680Z,95319.59
2022-08-30T09:41:36.298Z,95310.56
2022-08-30T09:44:15.573Z,95319.50
2022-08-30T09:46:48.880Z,95316.94
2022-08-30T09:49:41.325Z,95320.00
2022-08-30T09:52:41.537Z,95315.53
2022-08-30T09:55:08.300Z,95320.88
2022-08-30T09:58:03.310Z,95317.94
2022-08-30T10:00:39.468Z,95320.38
2022-08-30T10:03:47.829Z,95320.47
2022-08-30T10:06:25.220Z,95324.47
2022-08-30T10:09:13.141Z,95322.72
2022-08-30T10:12:00.913Z,95317.94
2022-08-30T10:14:59.744Z,95322.91
2022-08-30T10:17:49.518Z,95324.41
2022-08-30T10:20:33.743Z,95320.34
2022-08-30T10:23:09.427Z,95325.41
2022-08-30T10:25:46.732Z,95314.56
2022-08-30T10:28:42.150Z,95316.78
2022-08-30T10:31:20.621Z,95319.03
2022-08-30T10:33:58.681Z,95322.22
2022-08-30T10:36:36.013Z,95323.75
2022-08-30T10:39:04.871Z,95323.50
2022-08-30T10:41:31.449Z,95326.59
2022-08-30T10:44:21.029Z,95319.94
2022-08-30T10:47:04.321Z,95326.22
2022-08-30T10:49:40.485Z,95317.09
2022-08-30T10:52:23.501Z,95320.25
2022-08-30T10:55:18.406Z,95314.84
2022-08-30T10:57:45.584Z,95312.81
2022-08-30T11:00:22.444Z,95317.09
2022-08-30T11:03:06.102Z,95320.31
2022-08-30T11:06:21.719Z,95316.41
2022-08-30T11:09:13.797Z,95317.72
2022-08-30T11:12:01.897Z,95316.03
2022-08-30T11:14:30.281Z,95307.56
2022-08-30T11:17:00.564Z,95313.94
2022-08-30T11:19:40.991Z,95312.47
2022-08-30T11:22:21.432Z,95309.16
2022-08-30T11:25:16.830Z,95302.59
2022-08-30T11:27:55.178Z,95306.78
2022-08-30T11:30:26.511Z,95308.47
2022-08-30T11:33:05.428Z,95310.66
2022-08-30T11:35:39.082Z,95300.16
2022-08-30T11:38:25.291Z,95301.34
2022-08-30T11:40:54.537Z,95299.41
2022-08-30T11:43:41.057Z,95296.59
2022-08-30T11:46:34.662Z,95298.38
2022-08-30T11:49:13.202Z,95304.09
2022-08-30T11:52:27.527Z,95301.38
2022-08-30T11:55:15.077Z,95304.22
2022-08-30T11:57:47.520Z,95297.00
2022-08-30T12:00:28.736Z,95299.41
2022-08-30T12:02:59.649Z,95291.38
2022-08-30T12:05:38.463Z,95286.31
2022-08-30T12:08:24.365Z,95288.50
2022-08-30T12:10:58.597Z,95294.28
2022-08-30T12:13:34.078Z,95290.94
2022-08-30T12:16:06.844Z,95291.22
2022-08-30T12:18:47.014Z,95295.44
2022-08-30T12:21:13.642Z,95298.13
2022-08-30T12:24:06.625Z,95294.13
2022-08-30T12:26:33.275Z,95301.28
2022-08-30T12:29:26.700Z,95298.75
2022-08-30T12:32:00.697Z,95296.38
2022-08-30T12:34:49.377Z,95298.94
2022-08-30T12:37:23.793Z,95297.81
2022-08-30T12:40:02.693Z,95297.16
2022-08-30T12:42:33.311Z,95294.47
2022-08-30T12:45:06.151Z,95286.94
2022-08-30T12:47:48.060Z,95276.25
2022-08-30T12:50:22.510Z,95267.53
2022-08-30T12:53:09.309Z,95267.69
2022-08-30T12:55:59.222Z,95272.91
2022-08-30T12:58:38.396Z,95276.13
2022-08-30T13:01:24.558Z,95268.66
2022-08-30T13:04:03.049Z,95256.81
2022-08-30T13:06:49.116Z,95255.72
2022-08-30T13:09:42.755Z,95249.06
2022-08-30T13:12:26.277Z,95240.91
2022-08-30T13:15:08.884Z,95244.13
2022-08-30T13:17:38.792Z,95236.13
2022-08-30T13:20:17.197Z,95241.41
2022-08-30T13:23:02.275Z,95232.94
2022-08-30T13:25:29.321Z,95226.06
2022-08-30T13:28:01.247Z,95205.25
2022-08-30T13:30:30.143Z,95216.22
2022-08-30T13:32:57.908Z,95203.31
2022-08-30T13:35:25.374Z,95195.34
2022-08-30T13:37:52.228Z,95192.75
2022-08-30T13:40:21.441Z,95193.88
2022-08-30T13:42:49.105Z,95197.50
2022-08-30T13:48:07.060Z,95194.75
2022-08-30T13:50:33.818Z,95192.06
2022-08-30T13:53:00.500Z,95191.09
2022-08-30T13:55:28.082Z,95184.84
2022-08-30T13:57:58.031Z,95175.16
2022-08-30T14:00:26.184Z,95174.31
2022-08-30T14:02:53.948Z,95180.19
2022-08-30T14:11:04.418Z,95168.94
2022-08-30T14:13:32.105Z,95166.09
2022-08-30T14:18:48.947Z,95177.16
2022-08-30T14:21:16.026Z,95160.25
2022-08-30T14:23:42.822Z,95146.44
2022-08-30T14:26:28.149Z,95144.50
2022-08-30T14:28:59.811Z,95137.81
2022-08-30T14:31:26.467Z,95142.91
2022-08-30T14:33:53.157Z,95138.06
2022-08-30T14:36:23.887Z,95133.94
2022-08-30T14:38:51.474Z,95135.16
2022-08-30T14:41:18.134Z,95137.25
2022-08-30T14:43:45.057Z,95127.03
2022-08-30T14:46:15.623Z,95127.03
2022-08-30T14:48:43.099Z,95133.91
2022-08-30T14:51:22.643Z,95128.88
2022-08-30T14:53:53.532Z,95134.41
2022-08-30T14:56:23.222Z,95128.97
2022-08-30T14:58:53.800Z,95118.94
2022-08-30T15:01:21.043Z,95119.75
2022-08-30T15:03:48.026Z,95124.88
2022-08-30T15:06:15.507Z,95110.50
2022-08-30T15:08:43.391Z,95110.47
2022-08-30T15:11:18.501Z,95106.50
2022-08-30T15:13:46.070Z,95103.38
2022-08-30T15:16:14.522Z,95100.88
2022-08-30T15:18:41.830Z,95090.44
2022-08-30T15:21:09.635Z,95102.97
2022-08-30T15:23:36.871Z,95098.16
2022-08-30T15:26:05.729Z,95096.56
2022-08-30T15:28:34.999Z,95103.22
2022-08-30T15:31:06.319Z,95088.81
2022-08-30T15:33:35.981Z,95090.13
2022-08-30T15:36:05.397Z,95080.81
2022-08-30T15:38:32.916Z,95077.13
2022-08-30T15:41:03.581Z,95080.38
2022-08-30T15:43:31.753Z,95086.97
2022-08-30T15:46:29.867Z,95077.97
2022-08-30T15:49:01.929Z,95083.75
2022-08-30T15:51:30.868Z,95084.94
2022-08-30T15:54:09.657Z,95080.28
2022-08-30T15:56:41.815Z,95089.41
2022-08-30T15:59:09.926Z,95087.31
2022-08-30T16:01:37.859Z,95094.03
2022-08-30T16:04:04.565Z,95090.97
2022-08-30T16:06:34.965Z,95095.56
2022-08-30T16:09:01.918Z,95094.09
2022-08-30T16:11:28.540Z,95096.69
2022-08-30T16:13:56.714Z,95104.25
2022-08-30T16:16:25.182Z,95110.94
2022-08-30T16:18:54.233Z,95113.44
2022-08-30T16:21:31.128Z,95112.63
2022-08-30T16:24:00.851Z,95113.88
2022-08-30T16:26:29.668Z,95120.09
2022-08-30T16:28:56.319Z,95127.34
2022-08-30T16:31:24.329Z,95126.91
2022-08-30T16:33:53.173Z,95132.25
2022-08-30T16:36:22.397Z,95130.28
2022-08-30T16:38:49.773Z,95129.28
2022-08-30T16:41:21.797Z,95131.22
2022-08-30T16:43:53.263Z,95133.59
2022-08-30T16:46:27.190Z,95146.19
2022-08-30T16:48:57.813Z,95156.81
2022-08-30T16:51:27.635Z,95169.06
2022-08-30T16:53:56.590Z,95170.56
2022-08-30T16:56:26.680Z,95174.06
2022-08-30T17:01:41.040Z,95187.91
2022-08-30T17:04:08.790Z,95206.41
2022-08-30T17:06:36.761Z,95225.94
2022-08-30T17:09:05.223Z,95239.19
2022-08-30T17:11:42.293Z,95237.00
2022-08-30T17:14:10.261Z,95238.66
2022-08-30T17:19:28.658Z,95240.59
2022-08-30T17:21:56.027Z,95239.53
2022-08-30T17:24:22.779Z,95223.63
2022-08-30T17:26:51.312Z,95232.34
2022-08-30T17:29:18.004Z,95241.03
2022-08-30T17:31:44.723Z,95248.66
2022-08-30T17:34:11.642Z,95252.47
2022-08-30T17:36:38.512Z,95256.94
2022-08-30T17:39:10.461Z,95275.34
2022-08-30T17:41:43.308Z,95275.84
2022-08-30T17:44:12.852Z,95268.19
2022-08-30T17:46:40.328Z,95274.63
2022-08-30T17:49:10.417Z,95284.03
2022-08-30T17:51:37.400Z,95271.78
2022-08-30T17:54:06.563Z,95264.50
2022-08-30T17:56:35.527Z,95269.06
2022-08-30T17:59:03.009Z,95267.44
2022-08-30T18:01:30.330Z,95268.78
2022-08-30T18:03:57.804Z,95275.78
2022-08-30T18:06:31.505Z,95279.81
2022-08-30T18:08:58.201Z,95282.97
2022-08-30T18:11:27.167Z,95290.19
2022-08-30T18:13:53.775Z,95282.97
2022-08-30T18:16:21.687Z,95286.19
2022-08-30T18:18:57.351Z,95278.66
2022-08-30T18:21:25.289Z,95287.38
2022-08-30T18:23:52.616Z,95291.22
2022-08-30T18:26:24.143Z,95302.16
2022-08-30T18:28:51.305Z,95305.66
2022-08-30T18:31:18.051Z,95304.97
2022-08-30T18:33:48.687Z,95294.94
2022-08-30T18:36:16.495Z,95295.44
2022-08-30T18:38:44.637Z,95294.78
2022-08-30T18:41:13.340Z,95296.88
2022-08-30T18:43:40.929Z,95313.91
2022-08-30T18:46:10.992Z,95324.75
2022-08-30T18:48:38.871Z,95340.56
2022-08-30T18:51:19.085Z,95345.66
2022-08-30T18:53:47.374Z,95358.88
2022-08-30T18:56:16.204Z,95365.63
2022-08-30T18:58:45.044Z,95356.97
2022-08-30T19:01:12.917Z,95357.53
2022-08-30T19:03:43.209Z,95356.28
2022-08-30T19:06:11.776Z,95362.38
2022-08-30T19:08:39.750Z,95351.19
2022-08-30T19:11:09.200Z,95333.47
2022-08-30T19:13:37.322Z,95332.03
2022-08-30T19:16:05.783Z,95351.34
2022-08-30T19:18:34.595Z,95344.19
2022-08-30T19:21:04.228Z,95352.25
2022-08-30T19:23:34.346Z,95364.38
2022-08-30T19:26:01.365Z,95374.53
2022-08-30T19:28:28.779Z,95366.25
2022-08-30T19:30:58.004Z,95369.72
2022-08-30T19:33:24.802Z,95368.09
2022-08-30T19:35:53.179Z,95373.97
2022-08-30T19:38:21.096Z,95367.00
2022-08-30T19:40:52.395Z,95372.13
2022-08-30T19:43:21.497Z,95374.00
2022-08-30T19:45:53.858Z,95370.72
2022-08-30T19:48:22.289Z,95363.91
2022-08-30T19:50:49.355Z,95370.59
2022-08-30T19:53:16.357Z,95363.75
2022-08-30T19:55:44.317Z,95369.28
2022-08-30T19:58:12.416Z,95373.09
2022-08-30T20:00:39.258Z,95376.50
2022-08-30T20:03:12.184Z,95373.63
2022-08-30T20:05:50.861Z,95383.59
2022-08-30T20:08:17.559Z,95380.91
2022-08-30T20:10:45.478Z,95377.22
2022-08-30T20:13:12.894Z,95378.00
2022-08-30T20:15:39.732Z,95383.38
2022-08-30T20:18:13.403Z,95383.53
2022-08-30T20:20:41.693Z,95378.91
2022-08-30T20:23:16.289Z,95379.97
2022-08-30T20:24:23.149Z,95186.47
2022-08-30T20:24:25.126Z,95248.03
2022-08-30T20:25:51.132Z,95378.28
2022-08-30T20:28:18.510Z,95373.50
2022-08-30T20:30:45.343Z,95373.19
2022-08-30T20:33:13.370Z,95368.00
2022-08-30T20:35:44.450Z,95369.59
2022-08-30T20:38:15.063Z,95370.25
2022-08-30T20:40:41.782Z,95376.13
2022-08-30T20:43:09.475Z,95364.06
2022-08-30T20:45:36.089Z,95364.03
2022-08-30T20:48:02.905Z,95358.09
2022-08-30T20:50:29.647Z,95350.94
2022-08-30T20:52:56.307Z,95349.84
2022-08-30T20:55:24.771Z,95346.09
2022-08-30T20:57:51.452Z,95334.28
2022-08-30T21:00:18.172Z,95339.16
2022-08-30T21:02:46.799Z,95338.00
2022-08-30T21:05:20.739Z,95336.69
2022-08-30T21:07:47.375Z,95343.19
2022-08-30T21:10:21.222Z,95334.81
2022-08-30T21:12:50.016Z,95333.75
2022-08-30T21:15:36.278Z,95333.19
2022-08-30T21:18:03.373Z,95344.22
2022-08-30T21:20:30.053Z,95347.75
2022-08-30T21:22:56.787Z,95343.91
2022-08-30T21:25:23.463Z,95337.97
2022-08-30T21:27:50.100Z,95343.28
2022-08-30T21:30:18.203Z,95345.75
2022-08-30T21:32:44.833Z,95339.97
2022-08-30T21:35:11.472Z,95341.16
2022-08-30T21:37:38.162Z,95336.44
2022-08-30T21:40:05.291Z,95335.47
2022-08-30T21:42:31.959Z,95332.13
2022-08-30T21:45:01.271Z,95340.78
2022-08-30T21:47:27.940Z,95343.91
2022-08-30T21:49:57.461Z,95336.53
2022-08-30T21:52:24.289Z,95337.44
2022-08-30T21:54:53.765Z,95340.22
2022-08-30T21:57:20.430Z,95344.16
2022-08-30T21:59:47.115Z,95342.50
2022-08-30T22:02:13.766Z,95338.25
2022-08-30T22:04:41.028Z,95332.44
2022-08-30T22:07:07.673Z,95337.94
2022-08-30T22:09:35.456Z,95334.63
2022-08-30T22:12:06.918Z,95342.22
2022-08-30T22:14:35.748Z,95340.16
2022-08-30T22:17:02.526Z,95339.13
2022-08-30T22:19:33.512Z,95341.75
2022-08-30T22:22:01.717Z,95346.19
2022-08-30T22:24:32.049Z,95338.22
2022-08-30T22:27:00.806Z,95335.69
2022-08-30T22:29:27.454Z,95338.91
2022-08-30T22:31:54.212Z,95349.94
2022-08-30T22:34:21.008Z,95345.63
2022-08-30T22:36:47.632Z,95350.50
2022-08-30T22:39:14.312Z,95339.44
2022-08-30T22:41:42.171Z,95351.00
2022-08-30T22:44:10.716Z,95340.94
2022-08-30T22:46:37.778Z,95343.41
2022-08-30T22:49:06.558Z,95347.75
2022-08-30T22:51:34.569Z,95347.09
2022-08-30T22:54:03.574Z,95348.34
2022-08-30T22:56:30.535Z,95343.34
2022-08-30T22:58:57.170Z,95350.19
2022-08-30T23:01:30.564Z,95354.97
2022-08-30T23:03:58.760Z,95350.81
2022-08-30T23:06:25.433Z,95335.66
2022-08-30T23:08:52.048Z,95343.13
2022-08-30T23:11:19.590Z,95347.31
2022-08-30T23:13:47.290Z,95345.19
2022-08-30T23:16:15.527Z,95340.06
2022-08-30T23:18:43.804Z,95337.88
2022-08-30T23:21:14.031Z,95342.22
2022-08-30T23:23:41.155Z,95338.19
2022-08-30T23:26:07.793Z,95330.69
2022-08-30T23:28:34.417Z,95331.81
2022-08-30T23:31:17.774Z,95333.81
2022-08-30T23:33:44.426Z,95332.19
2022-08-30T23:36:14.355Z,95327.84
2022-08-30T23:38:41.233Z,95337.47
2022-08-30T23:41:08.199Z,95337.47
2022-08-30T23:43:34.893Z,95334.00
2022-08-30T23:46:01.561Z,95328.22
2022-08-30T23:48:28.227Z,95332.72
2022-08-30T23:50:54.873Z,95327.09
2022-08-30T23:53:21.472Z,95337.16
2022-08-30T23:55:48.307Z,95328.84
2022-08-30T23:58:14.964Z,95334.41
